createdAt,value
2019-01-26T05:04:08.437Z,96.64917
2019-01-26T05:07:36.325Z,96.54541
2019-01-26T05:11:04.220Z,96.54541
2019-01-26T05:14:32.100Z,96.606445
2019-01-26T05:18:00.980Z,96.502686
2019-01-26T05:21:28.877Z,96.185303
2019-01-26T05:24:56.745Z,96.289062
2019-01-26T05:28:24.638Z,96.081543
2019-01-26T05:31:52.530Z,96.185303
2019-01-26T05:35:20.420Z,96.289062
2019-01-26T05:38:48.291Z,95.97168
2019-01-26T05:42:16.181Z,96.081543
2019-01-26T05:45:44.078Z,96.185303
2019-01-26T05:49:11.952Z,96.081543
2019-01-26T05:52:39.840Z,96.081543
2019-01-26T05:56:07.737Z,95.86792
2019-01-26T05:59:35.610Z,95.97168
2019-01-26T06:03:03.499Z,95.97168
2019-01-26T06:06:31.395Z,96.081543
2019-01-26T06:09:59.268Z,96.081543
2019-01-26T06:13:27.158Z,95.97168
2019-01-26T06:16:55.045Z,96.081543
2019-01-26T06:20:22.912Z,96.185303
2019-01-26T06:23:50.803Z,96.289062
2019-01-26T06:27:18.693Z,96.392822
2019-01-26T06:30:46.563Z,96.350098
2019-01-26T06:34:14.448Z,96.246338
2019-01-26T06:37:42.336Z,96.350098
2019-01-26T06:41:10.262Z,96.350098
2019-01-26T06:44:38.129Z,96.246338
2019-01-26T06:48:06.018Z,96.142578
2019-01-26T06:51:33.922Z,96.246338
2019-01-26T06:55:01.796Z,96.350098
2019-01-26T06:58:29.679Z,96.453857
2019-01-26T07:01:58.558Z,96.563721
2019-01-26T07:05:26.428Z,96.77124
2019-01-26T07:08:55.302Z,96.875
2019-01-26T07:12:23.189Z,96.984863
2019-01-26T07:15:51.071Z,97.088623
2019-01-26T07:19:18.957Z,97.192383
2019-01-26T07:22:46.840Z,97.192383
2019-01-26T07:26:15.752Z,97.088623
2019-01-26T07:29:43.658Z,97.192383
2019-01-26T07:33:11.609Z,97.296143
2019-01-26T07:36:39.482Z,97.296143
2019-01-26T07:40:07.373Z,97.467041
2019-01-26T07:43:35.256Z,97.467041
2019-01-26T07:47:03.130Z,97.467041
2019-01-26T07:50:31.039Z,97.570801
2019-01-26T07:53:58.928Z,97.357178
2019-01-26T07:57:26.804Z,97.357178
2019-01-26T08:00:54.689Z,97.357178
2019-01-26T08:04:22.587Z,97.357178
2019-01-26T08:07:50.460Z,97.467041
2019-01-26T08:11:18.347Z,97.528076
2019-01-26T08:14:46.236Z,97.314453
2019-01-26T08:18:14.124Z,97.314453
2019-01-26T08:21:44.975Z,97.106934
2019-01-26T08:25:12.874Z,97.210693
2019-01-26T08:28:40.763Z,97.167969
2019-01-26T08:32:08.649Z,96.954346
2019-01-26T08:35:36.547Z,96.850586
2019-01-26T08:39:04.438Z,96.594238
2019-01-26T08:42:32.310Z,96.179199
2019-01-26T08:46:00.513Z,95.605469
2019-01-26T08:49:28.405Z,95.397949
2019-01-26T08:52:56.306Z,95.080566
2019-01-26T08:56:24.173Z,95.294189
2019-01-26T08:59:52.060Z,94.976807
2019-01-26T09:03:21.393Z,95.19043
2019-01-26T09:06:49.269Z,95.080566
2019-01-26T09:10:17.159Z,95.080566
2019-01-26T09:13:45.050Z,95.080566
2019-01-26T09:17:12.929Z,94.665527
2019-01-26T09:20:40.817Z,95.19043
2019-01-26T09:24:09.700Z,95.19043
2019-01-26T09:27:37.578Z,95.294189
2019-01-26T09:31:05.467Z,95.458984
2019-01-26T09:34:33.351Z,95.251465
2019-01-26T09:38:01.220Z,94.726562
2019-01-26T09:41:29.109Z,94.580078
2019-01-26T09:44:57.038Z,93.737793
2019-01-26T09:48:24.905Z,93.127441
2019-01-26T09:51:52.797Z,91.833496
2019-01-26T09:55:20.691Z,91.094971
2019-01-26T09:58:48.567Z,90.991211
2019-01-26T10:02:16.457Z,91.308594
2019-01-26T10:05:44.342Z,91.204834
2019-01-26T10:09:12.216Z,91.937256
2019-01-26T10:12:40.118Z,91.619873
2019-01-26T10:16:08.010Z,92.248535
2019-01-26T10:19:35.894Z,92.352295
2019-01-26T10:23:03.785Z,91.937256
2019-01-26T10:26:31.682Z,92.669678
2019-01-26T10:30:00.547Z,92.565918
2019-01-26T10:33:28.493Z,92.041016
2019-01-26T10:36:56.326Z,92.144775
2019-01-26T10:40:24.255Z,92.456055
2019-01-26T10:43:53.113Z,92.919922
2019-01-26T10:47:22.001Z,93.237305
2019-01-26T10:50:49.891Z,93.505859
2019-01-26T10:54:17.765Z,93.548584
2019-01-26T10:57:45.657Z,94.281006
2019-01-26T11:01:13.571Z,94.281006
2019-01-26T11:04:41.446Z,94.030762
2019-01-26T11:08:09.330Z,94.030762
2019-01-26T11:11:38.207Z,93.823242
2019-01-26T11:15:06.079Z,94.134521
2019-01-26T11:18:34.965Z,94.091797
2019-01-26T11:22:02.859Z,93.988037
2019-01-26T11:25:30.737Z,93.670654
2019-01-26T11:28:58.638Z,93.780518
2019-01-26T11:32:26.531Z,93.780518
2019-01-26T11:35:54.403Z,93.988037
2019-01-26T11:39:22.541Z,93.988037
2019-01-26T11:42:50.188Z,93.988037
2019-01-26T11:46:18.062Z,93.945312
2019-01-26T11:49:45.966Z,94.152832
2019-01-26T11:53:13.844Z,93.737793
2019-01-26T11:56:41.757Z,93.481445
2019-01-26T12:00:09.634Z,92.962646
2019-01-26T12:03:38.533Z,92.230225
2019-01-26T12:07:07.455Z,92.08374
2019-01-26T12:10:35.309Z,92.08374
2019-01-26T12:14:03.202Z,92.39502
2019-01-26T12:17:31.099Z,92.437744
2019-01-26T12:20:59.970Z,92.962646
2019-01-26T12:24:27.862Z,93.273926
2019-01-26T12:27:55.756Z,94.152832
2019-01-26T12:31:23.654Z,94.73877
2019-01-26T12:34:51.530Z,94.946289
2019-01-26T12:38:19.442Z,95.257568
2019-01-26T12:41:47.311Z,95.324707
2019-01-26T12:45:16.210Z,95.532227
2019-01-26T12:48:44.102Z,95.739746
2019-01-26T12:52:11.991Z,95.739746
2019-01-26T12:55:39.866Z,95.635986
2019-01-26T12:59:07.763Z,95.947266
2019-01-26T13:02:35.710Z,96.264648
2019-01-26T13:06:03.584Z,96.783447
2019-01-26T13:09:31.473Z,97.20459
2019-01-26T13:12:59.356Z,97.412109
2019-01-26T13:16:27.233Z,97.833252
2019-01-26T13:19:55.122Z,98.144531
2019-01-26T13:23:24.015Z,98.55957
2019-01-26T13:26:51.890Z,98.773193
2019-01-26T13:30:19.778Z,99.084473
2019-01-26T13:33:47.668Z,99.291992
2019-01-26T13:37:16.611Z,99.505615
2019-01-26T13:40:44.505Z,99.713135
2019-01-26T13:44:12.401Z,99.816895
2019-01-26T13:47:40.273Z,99.920654
2019-01-26T13:51:13.017Z,99.993896
2019-01-26T13:54:39.028Z,99.993896
2019-01-26T13:58:06.939Z,99.993896
2019-01-26T14:01:34.814Z,99.993896
2019-01-26T14:05:02.728Z,99.993896
2019-01-26T14:08:30.612Z,99.993896
2019-01-26T14:11:59.478Z,99.993896
2019-01-26T14:15:27.373Z,99.993896
2019-01-26T14:18:55.370Z,99.993896
2019-01-26T14:22:23.352Z,99.993896
2019-01-26T14:25:51.125Z,99.993896
2019-01-26T14:29:20.010Z,99.993896
2019-01-26T14:32:52.516Z,99.993896
2019-01-26T14:36:18.750Z,99.993896
2019-01-26T14:39:47.634Z,99.993896
2019-01-26T14:43:15.512Z,99.993896
2019-01-26T14:46:43.396Z,99.993896
2019-01-26T14:50:11.278Z,99.993896
2019-01-26T14:53:39.150Z,99.993896
2019-01-26T14:57:10.011Z,99.993896
2019-01-26T15:00:37.902Z,99.993896
2019-01-26T15:04:05.770Z,99.993896
2019-01-26T15:07:33.659Z,99.993896
2019-01-26T15:11:01.546Z,99.993896
2019-01-26T15:14:29.424Z,99.993896
2019-01-26T15:17:57.318Z,99.993896
2019-01-26T15:21:25.203Z,99.993896
2019-01-26T15:24:53.078Z,99.993896
2019-01-26T15:28:20.982Z,99.993896
2019-01-26T15:31:48.874Z,99.993896
2019-01-26T15:35:16.755Z,99.993896
2019-01-26T15:38:45.615Z,99.993896
2019-01-26T15:42:13.500Z,99.993896
2019-01-26T15:45:41.383Z,99.993896
2019-01-26T15:49:09.257Z,99.993896
2019-01-26T15:52:37.149Z,99.993896
2019-01-26T15:56:05.036Z,99.993896
2019-01-26T15:59:32.903Z,99.993896
2019-01-26T16:03:00.792Z,99.993896
2019-01-26T16:06:28.677Z,99.993896
2019-01-26T16:09:56.551Z,99.993896
2019-01-26T16:13:24.438Z,99.993896
2019-01-26T16:16:52.334Z,99.993896
2019-01-26T16:20:21.198Z,99.993896
2019-01-26T16:23:49.086Z,99.993896
2019-01-26T16:27:16.967Z,99.993896
2019-01-26T16:30:44.949Z,99.993896
2019-01-26T16:34:12.821Z,99.993896
2019-01-26T16:37:40.709Z,99.993896
2019-01-26T16:41:08.592Z,99.993896
2019-01-26T16:44:36.465Z,99.993896
2019-01-26T16:48:04.354Z,99.993896
2019-01-26T16:51:33.230Z,99.993896
2019-01-26T16:55:01.102Z,99.993896
2019-01-26T16:58:28.989Z,99.993896
2019-01-26T17:01:56.875Z,99.993896
2019-01-26T17:05:26.013Z,99.993896
2019-01-26T17:08:53.619Z,99.993896
2019-01-26T17:12:21.604Z,99.993896
2019-01-26T17:15:49.574Z,99.993896
2019-01-26T17:19:17.434Z,99.993896
2019-01-26T17:22:45.332Z,99.993896
2019-01-26T17:26:13.310Z,99.993896
2019-01-26T17:29:41.181Z,99.993896
2019-01-26T17:33:10.065Z,99.993896
2019-01-26T17:36:37.966Z,99.993896
2019-01-26T17:40:05.846Z,99.993896
2019-01-26T17:43:33.730Z,99.993896
2019-01-26T17:47:01.629Z,99.993896
2019-01-26T17:50:29.502Z,99.993896
2019-01-26T17:53:58.428Z,99.993896
2019-01-26T17:57:26.271Z,99.993896
2019-01-26T18:00:54.158Z,99.993896
2019-01-26T18:04:22.033Z,99.993896
2019-01-26T18:07:49.920Z,99.993896
2019-01-26T18:11:17.809Z,99.993896
2019-01-26T18:14:45.684Z,99.993896
2019-01-26T18:18:13.580Z,99.993896
2019-01-26T18:21:41.468Z,99.993896
2019-01-26T18:25:10.337Z,99.993896
2019-01-26T18:28:38.224Z,99.993896
2019-01-26T18:32:06.111Z,99.993896
2019-01-26T18:35:34.011Z,99.993896
2019-01-26T18:39:01.881Z,99.993896
2019-01-26T18:42:29.769Z,99.993896
2019-01-26T18:45:57.656Z,99.993896
2019-01-26T18:49:25.526Z,99.993896
2019-01-26T18:52:53.417Z,99.993896
2019-01-26T18:56:21.301Z,99.993896
2019-01-26T18:59:50.155Z,99.993896
2019-01-26T19:03:18.038Z,99.993896
2019-01-26T19:06:45.929Z,99.993896
2019-01-26T19:10:13.802Z,99.993896
2019-01-26T19:13:41.694Z,99.993896
2019-01-26T19:17:09.583Z,99.993896
2019-01-26T19:20:37.456Z,99.993896
2019-01-26T19:24:06.331Z,99.993896
2019-01-26T19:27:34.220Z,99.993896
2019-01-26T19:31:02.092Z,99.993896
2019-01-26T19:34:30.071Z,99.993896
2019-01-26T19:37:57.964Z,99.993896
2019-01-26T19:41:25.857Z,99.993896
2019-01-26T19:44:53.725Z,99.993896
2019-01-26T19:48:21.613Z,99.993896
2019-01-26T19:51:49.509Z,99.993896
2019-01-26T19:55:17.375Z,99.993896
2019-01-26T19:58:45.261Z,99.993896
2019-01-26T20:02:13.156Z,99.993896
2019-01-26T20:05:47.826Z,99.993896
2019-01-26T20:09:11.882Z,99.993896
2019-01-26T20:12:39.784Z,99.993896
2019-01-26T20:16:07.665Z,99.993896
2019-01-26T20:19:35.580Z,99.993896
2019-01-26T20:23:03.476Z,99.993896
2019-01-26T20:26:31.339Z,99.993896
2019-01-26T20:29:59.239Z,99.993896
2019-01-26T20:33:27.122Z,99.993896
2019-01-26T20:36:54.995Z,99.993896
2019-01-26T20:40:22.880Z,99.993896
2019-01-26T20:43:51.760Z,99.993896
2019-01-26T20:47:19.635Z,99.993896
2019-01-26T20:50:47.553Z,99.993896
2019-01-26T20:54:15.447Z,99.993896
2019-01-26T20:57:43.318Z,99.993896
2019-01-26T21:01:11.205Z,99.993896
2019-01-26T21:04:39.098Z,99.993896
2019-01-26T21:08:07.002Z,99.993896
2019-01-26T21:11:34.910Z,99.993896
2019-01-26T21:15:05.392Z,99.993896
2019-01-26T21:18:34.447Z,99.993896
2019-01-26T21:22:02.339Z,99.993896
2019-01-26T21:25:30.221Z,99.993896
2019-01-26T21:28:58.093Z,99.993896
2019-01-26T21:32:26.054Z,99.993896
2019-01-26T21:35:53.984Z,99.993896
2019-01-26T21:39:21.858Z,99.993896
2019-01-26T21:42:49.746Z,99.993896
2019-01-26T21:46:18.633Z,99.993896
2019-01-26T21:49:46.487Z,99.993896
2019-01-26T21:53:14.376Z,99.993896
2019-01-26T21:56:42.263Z,99.993896
2019-01-26T22:00:10.130Z,99.993896
2019-01-26T22:03:38.018Z,99.993896
2019-01-26T22:07:05.907Z,99.993896
2019-01-26T22:10:33.775Z,99.993896
2019-01-26T22:14:01.665Z,99.993896
2019-01-26T22:17:29.621Z,99.993896
2019-01-26T22:20:57.486Z,99.993896
2019-01-26T22:24:25.381Z,99.993896
2019-01-26T22:27:53.500Z,99.993896
2019-01-26T22:31:21.373Z,99.993896
2019-01-26T22:34:50.271Z,99.993896
2019-01-26T22:38:19.145Z,99.993896
2019-01-26T22:41:47.019Z,99.993896
2019-01-26T22:45:14.908Z,99.993896
2019-01-26T22:48:42.804Z,99.993896
2019-01-26T22:52:10.672Z,99.993896
2019-01-26T22:55:38.563Z,99.993896
2019-01-26T22:59:06.449Z,99.993896
